FUL weather

Public forecast

Using degrees Fahrenheit for public forecast. Weather courtesy of forecast.io.

Current aviation weather report (METAR) for Fullerton Municipal Airport

Retrieved 2020/08/09 18:53 UTC (32 minutes ago):

KFUL 091853Z 00000KT 10SM CLR 27/16 A2995 RMK AO2 SLP142 T02720156

Closest aviation forecast (TAF) to Fullerton Municipal Airport

Forecast is more than 6 hours old.

Closest forecast is Los Alamitos Army Air Field, 6.1 nm (11.3 km) SW. Retrieved 2020/08/09 13:12 UTC (6 hours ago):

TAF KSLI 091300Z 0913/1019 VRB06KT 9000 BR OVC010 QNH2996INS BECMG 0917/0918 VRB06KT 9999 NSW SKC QNH2987INS BECMG 1010/1011 VRB06KT 9000 BR OVC010 QNH2992INS TX25/0922Z TN15/1012Z